sensor_id;sensor_type;location;lat;lon;timestamp;temperature;humidity
18456;DHT22;9357;49.900;8.208;2022-12-13T00:01:16;-3.30;99.90
18456;DHT22;9357;49.900;8.208;2022-12-13T00:02:50;-3.30;99.90
18456;DHT22;9357;49.900;8.208;2022-12-13T00:04:23;-3.30;99.90
18456;DHT22;9357;49.900;8.208;2022-12-13T00:05:56;-3.30;99.90
18456;DHT22;9357;49.900;8.208;2022-12-13T00:07:29;-3.30;99.90
18456;DHT22;9357;49.900;8.208;2022-12-13T00:09:03;-3.30;99.90
18456;DHT22;9357;49.900;8.208;2022-12-13T00:10:36;-3.30;99.90
18456;DHT22;9357;49.900;8.208;2022-12-13T00:12:09;-3.40;99.90
18456;DHT22;9357;49.900;8.208;2022-12-13T00:13:42;-3.40;99.90
18456;DHT22;9357;49.900;8.208;2022-12-13T00:15:17;-3.40;99.90
18456;DHT22;9357;49.900;8.208;2022-12-13T00:16:49;-3.40;99.90
18456;DHT22;9357;49.900;8.208;2022-12-13T00:18:24;-3.40;99.90
18456;DHT22;9357;49.900;8.208;2022-12-13T00:19:57;-3.40;99.90
18456;DHT22;9357;49.900;8.208;2022-12-13T00:21:31;-3.40;99.90
18456;DHT22;9357;49.900;8.208;2022-12-13T00:23:04;-3.50;99.90
18456;DHT22;9357;49.900;8.208;2022-12-13T00:24:37;-3.50;99.90
18456;DHT22;9357;49.900;8.208;2022-12-13T00:26:19;-3.40;99.90
18456;DHT22;9357;49.900;8.208;2022-12-13T00:27:52;-3.40;99.90
18456;DHT22;9357;49.900;8.208;2022-12-13T00:29:24;-3.40;99.90
18456;DHT22;9357;49.900;8.208;2022-12-13T00:30:58;-3.40;99.90
18456;DHT22;9357;49.900;8.208;2022-12-13T00:32:50;-3.40;99.90
18456;DHT22;9357;49.900;8.208;2022-12-13T00:34:25;-3.50;99.90
18456;DHT22;9357;49.900;8.208;2022-12-13T00:35:57;-3.50;99.90
18456;DHT22;9357;49.900;8.208;2022-12-13T00:37:30;-3.50;99.90
18456;DHT22;9357;49.900;8.208;2022-12-13T00:39:03;-3.50;99.90
18456;DHT22;9357;49.900;8.208;2022-12-13T00:40:36;-3.50;99.90
18456;DHT22;9357;49.900;8.208;2022-12-13T00:42:08;-3.50;99.90
18456;DHT22;9357;49.900;8.208;2022-12-13T00:43:41;-3.50;99.90
18456;DHT22;9357;49.900;8.208;2022-12-13T00:45:13;-3.60;99.90
18456;DHT22;9357;49.900;8.208;2022-12-13T00:46:47;-3.60;99.90
18456;DHT22;9357;49.900;8.208;2022-12-13T00:48:22;-3.60;99.90
18456;DHT22;9357;49.900;8.208;2022-12-13T00:49:56;-3.60;99.90
18456;DHT22;9357;49.900;8.208;2022-12-13T00:51:30;-3.60;99.90
18456;DHT22;9357;49.900;8.208;2022-12-13T00:53:04;-3.60;99.90
18456;DHT22;9357;49.900;8.208;2022-12-13T00:54:36;-3.60;99.90
18456;DHT22;9357;49.900;8.208;2022-12-13T00:56:10;-3.60;99.90
18456;DHT22;9357;49.900;8.208;2022-12-13T00:57:43;-3.60;99.90
18456;DHT22;9357;49.900;8.208;2022-12-13T00:59:16;-3.60;99.90
18456;DHT22;9357;49.900;8.208;2022-12-13T01:00:49;-3.70;99.90
18456;DHT22;9357;49.900;8.208;2022-12-13T01:02:22;-3.70;99.90
18456;DHT22;9357;49.900;8.208;2022-12-13T01:03:56;-3.70;99.90
18456;DHT22;9357;49.900;8.208;2022-12-13T01:05:31;-3.60;99.90
18456;DHT22;9357;49.900;8.208;2022-12-13T01:07:26;-3.60;99.90
18456;DHT22;9357;49.900;8.208;2022-12-13T01:08:59;-3.60;99.90
18456;DHT22;9357;49.900;8.208;2022-12-13T01:10:31;-3.70;99.90
18456;DHT22;9357;49.900;8.208;2022-12-13T01:12:05;-3.70;99.90
18456;DHT22;9357;49.900;8.208;2022-12-13T01:13:38;-3.70;99.90
18456;DHT22;9357;49.900;8.208;2022-12-13T01:15:10;-3.70;99.90
18456;DHT22;9357;49.900;8.208;2022-12-13T01:16:43;-3.70;99.90
18456;DHT22;9357;49.900;8.208;2022-12-13T01:18:16;-3.70;99.90
18456;DHT22;9357;49.900;8.208;2022-12-13T01:19:49;-3.70;99.90
18456;DHT22;9357;49.900;8.208;2022-12-13T01:21:23;-3.70;99.90
18456;DHT22;9357;49.900;8.208;2022-12-13T01:22:56;-3.80;99.90
18456;DHT22;9357;49.900;8.208;2022-12-13T01:24:30;-3.70;99.90
18456;DHT22;9357;49.900;8.208;2022-12-13T01:26:05;-3.80;99.90
18456;DHT22;9357;49.900;8.208;2022-12-13T01:27:38;-3.80;99.90
18456;DHT22;9357;49.900;8.208;2022-12-13T01:29:11;-3.80;99.90
18456;DHT22;9357;49.900;8.208;2022-12-13T01:30:43;-3.80;99.90
18456;DHT22;9357;49.900;8.208;2022-12-13T01:32:16;-3.80;99.90
18456;DHT22;9357;49.900;8.208;2022-12-13T01:33:49;-3.80;99.90
18456;DHT22;9357;49.900;8.208;2022-12-13T01:35:21;-3.80;99.90
18456;DHT22;9357;49.900;8.208;2022-12-13T01:36:56;-3.90;99.90
18456;DHT22;9357;49.900;8.208;2022-12-13T01:38:29;-3.90;99.90
18456;DHT22;9357;49.900;8.208;2022-12-13T01:40:10;-3.90;99.90
18456;DHT22;9357;49.900;8.208;2022-12-13T01:41:48;-3.90;99.90
18456;DHT22;9357;49.900;8.208;2022-12-13T01:43:22;-3.90;99.90
18456;DHT22;9357;49.900;8.208;2022-12-13T01:45:19;-3.90;99.90
18456;DHT22;9357;49.900;8.208;2022-12-13T01:46:53;-4.00;99.90
18456;DHT22;9357;49.900;8.208;2022-12-13T01:48:28;-3.90;99.90
18456;DHT22;9357;49.900;8.208;2022-12-13T01:50:06;-3.90;99.90
18456;DHT22;9357;49.900;8.208;2022-12-13T01:51:42;-4.00;99.90
18456;DHT22;9357;49.900;8.208;2022-12-13T01:53:19;-3.90;99.90
18456;DHT22;9357;49.900;8.208;2022-12-13T01:54:54;-4.00;99.90
18456;DHT22;9357;49.900;8.208;2022-12-13T01:56:36;-4.00;99.90
18456;DHT22;9357;49.900;8.208;2022-12-13T01:58:12;-4.00;99.90
18456;DHT22;9357;49.900;8.208;2022-12-13T01:59:46;-4.00;99.90
18456;DHT22;9357;49.900;8.208;2022-12-13T02:01:20;-4.00;99.90
18456;DHT22;9357;49.900;8.208;2022-12-13T02:02:55;-4.00;99.90
18456;DHT22;9357;49.900;8.208;2022-12-13T02:04:33;-4.00;99.90
18456;DHT22;9357;49.900;8.208;2022-12-13T02:06:17;-4.10;99.90
18456;DHT22;9357;49.900;8.208;2022-12-13T02:07:51;-4.10;99.90
18456;DHT22;9357;49.900;8.208;2022-12-13T02:09:26;-4.10;99.90
18456;DHT22;9357;49.900;8.208;2022-12-13T02:10:59;-4.10;99.90
18456;DHT22;9357;49.900;8.208;2022-12-13T02:12:34;-4.10;99.90
18456;DHT22;9357;49.900;8.208;2022-12-13T02:14:08;-4.10;99.90
18456;DHT22;9357;49.900;8.208;2022-12-13T02:15:43;-4.10;99.90
18456;DHT22;9357;49.900;8.208;2022-12-13T02:17:25;-4.10;99.90
18456;DHT22;9357;49.900;8.208;2022-12-13T02:21:23;-4.20;99.90
18456;DHT22;9357;49.900;8.208;2022-12-13T02:25:12;-4.20;99.90
18456;DHT22;9357;49.900;8.208;2022-12-13T02:26:58;-4.10;99.90
18456;DHT22;9357;49.900;8.208;2022-12-13T02:28:46;-4.20;99.90
18456;DHT22;9357;49.900;8.208;2022-12-13T02:30:28;-4.20;99.90
18456;DHT22;9357;49.900;8.208;2022-12-13T02:32:06;-4.20;99.90
18456;DHT22;9357;49.900;8.208;2022-12-13T02:33:49;-4.20;99.90
18456;DHT22;9357;49.900;8.208;2022-12-13T02:35:27;-4.20;99.90
18456;DHT22;9357;49.900;8.208;2022-12-13T02:37:04;-4.30;99.90
18456;DHT22;9357;49.900;8.208;2022-12-13T02:38:53;-4.30;99.90
18456;DHT22;9357;49.900;8.208;2022-12-13T02:40:30;-4.30;99.90
18456;DHT22;9357;49.900;8.208;2022-12-13T02:42:06;-4.30;99.90
18456;DHT22;9357;49.900;8.208;2022-12-13T02:43:57;-4.30;99.90
18456;DHT22;9357;49.900;8.208;2022-12-13T02:45:37;-4.30;99.90
18456;DHT22;9357;49.900;8.208;2022-12-13T02:47:14;-4.40;99.90
18456;DHT22;9357;49.900;8.208;2022-12-13T02:48:55;-4.40;99.90
18456;DHT22;9357;49.900;8.208;2022-12-13T02:50:29;-4.30;99.90
18456;DHT22;9357;49.900;8.208;2022-12-13T02:52:06;-4.40;99.90
18456;DHT22;9357;49.900;8.208;2022-12-13T02:53:43;-4.40;99.90
18456;DHT22;9357;49.900;8.208;2022-12-13T02:55:16;-4.40;99.90
18456;DHT22;9357;49.900;8.208;2022-12-13T02:56:53;-4.40;99.90
18456;DHT22;9357;49.900;8.208;2022-12-13T02:58:29;-4.40;99.90
18456;DHT22;9357;49.900;8.208;2022-12-13T03:00:09;-4.40;99.90
18456;DHT22;9357;49.900;8.208;2022-12-13T03:01:56;-4.50;99.90
18456;DHT22;9357;49.900;8.208;2022-12-13T03:03:46;-4.40;99.90
18456;DHT22;9357;49.900;8.208;2022-12-13T03:05:27;-4.60;99.90
18456;DHT22;9357;49.900;8.208;2022-12-13T03:07:28;-4.50;99.90
18456;DHT22;9357;49.900;8.208;2022-12-13T03:09:17;-4.50;99.90
18456;DHT22;9357;49.900;8.208;2022-12-13T03:11:02;-4.50;99.90
18456;DHT22;9357;49.900;8.208;2022-12-13T03:12:40;-4.50;99.90
18456;DHT22;9357;49.900;8.208;2022-12-13T03:14:36;-4.50;99.90
18456;DHT22;9357;49.900;8.208;2022-12-13T03:16:20;-4.60;99.90
18456;DHT22;9357;49.900;8.208;2022-12-13T03:17:58;-4.60;99.90
18456;DHT22;9357;49.900;8.208;2022-12-13T03:19:32;-4.60;99.90
18456;DHT22;9357;49.900;8.208;2022-12-13T03:21:07;-4.60;99.90
18456;DHT22;9357;49.900;8.208;2022-12-13T03:22:40;-4.60;99.90
18456;DHT22;9357;49.900;8.208;2022-12-13T03:24:15;-4.60;99.90
18456;DHT22;9357;49.900;8.208;2022-12-13T03:25:50;-4.60;99.90
18456;DHT22;9357;49.900;8.208;2022-12-13T03:27:23;-4.60;99.90
18456;DHT22;9357;49.900;8.208;2022-12-13T03:28:56;-4.70;99.90
18456;DHT22;9357;49.900;8.208;2022-12-13T03:30:30;-4.70;99.90
18456;DHT22;9357;49.900;8.208;2022-12-13T03:32:03;-4.70;99.90
18456;DHT22;9357;49.900;8.208;2022-12-13T03:33:37;-4.70;99.90
18456;DHT22;9357;49.900;8.208;2022-12-13T03:35:10;-4.70;99.90
18456;DHT22;9357;49.900;8.208;2022-12-13T03:36:53;-4.80;99.90
18456;DHT22;9357;49.900;8.208;2022-12-13T03:38:26;-4.80;99.90
18456;DHT22;9357;49.900;8.208;2022-12-13T03:39:59;-4.80;99.90
18456;DHT22;9357;49.900;8.208;2022-12-13T03:41:32;-4.80;99.90
18456;DHT22;9357;49.900;8.208;2022-12-13T03:43:04;-4.80;99.90
18456;DHT22;9357;49.900;8.208;2022-12-13T03:44:37;-4.80;99.90
18456;DHT22;9357;49.900;8.208;2022-12-13T03:46:10;-4.80;99.90
18456;DHT22;9357;49.900;8.208;2022-12-13T03:47:43;-4.80;99.90
18456;DHT22;9357;49.900;8.208;2022-12-13T03:49:17;-4.90;99.90
18456;DHT22;9357;49.900;8.208;2022-12-13T03:50:51;-4.90;99.90
18456;DHT22;9357;49.900;8.208;2022-12-13T03:52:24;-4.90;99.90
18456;DHT22;9357;49.900;8.208;2022-12-13T03:53:57;-4.90;99.90
18456;DHT22;9357;49.900;8.208;2022-12-13T03:55:29;-4.90;99.90
18456;DHT22;9357;49.900;8.208;2022-12-13T03:57:01;-4.90;99.90
18456;DHT22;9357;49.900;8.208;2022-12-13T03:58:34;-4.90;99.90
18456;DHT22;9357;49.900;8.208;2022-12-13T04:00:09;-4.90;99.90
18456;DHT22;9357;49.900;8.208;2022-12-13T04:01:42;-4.90;99.90
18456;DHT22;9357;49.900;8.208;2022-12-13T04:03:15;-4.90;99.90
18456;DHT22;9357;49.900;8.208;2022-12-13T04:04:49;-5.00;99.90
18456;DHT22;9357;49.900;8.208;2022-12-13T04:06:22;-5.00;99.90
18456;DHT22;9357;49.900;8.208;2022-12-13T04:08:03;-5.00;99.90
18456;DHT22;9357;49.900;8.208;2022-12-13T04:09:52;-5.00;99.90
18456;DHT22;9357;49.900;8.208;2022-12-13T04:11:25;-5.00;99.90
18456;DHT22;9357;49.900;8.208;2022-12-13T04:13:15;-5.00;99.90
18456;DHT22;9357;49.900;8.208;2022-12-13T04:15:06;-5.00;99.90
18456;DHT22;9357;49.900;8.208;2022-12-13T04:16:39;-5.00;99.90
18456;DHT22;9357;49.900;8.208;2022-12-13T04:18:12;-5.00;99.90
18456;DHT22;9357;49.900;8.208;2022-12-13T04:19:45;-5.10;99.90
18456;DHT22;9357;49.900;8.208;2022-12-13T04:21:19;-5.10;99.90
18456;DHT22;9357;49.900;8.208;2022-12-13T04:22:51;-5.10;99.90
18456;DHT22;9357;49.900;8.208;2022-12-13T04:24:24;-5.10;99.90
18456;DHT22;9357;49.900;8.208;2022-12-13T04:26:02;-5.10;99.90
18456;DHT22;9357;49.900;8.208;2022-12-13T04:27:35;-5.10;99.90
18456;DHT22;9357;49.900;8.208;2022-12-13T04:29:08;-5.10;99.90
18456;DHT22;9357;49.900;8.208;2022-12-13T04:30:41;-5.20;99.90
18456;DHT22;9357;49.900;8.208;2022-12-13T04:32:14;-5.20;99.90
18456;DHT22;9357;49.900;8.208;2022-12-13T04:33:57;-5.20;99.90
18456;DHT22;9357;49.900;8.208;2022-12-13T04:35:30;-5.20;99.90
18456;DHT22;9357;49.900;8.208;2022-12-13T04:37:04;-5.20;99.90
18456;DHT22;9357;49.900;8.208;2022-12-13T04:38:37;-5.20;99.90
18456;DHT22;9357;49.900;8.208;2022-12-13T04:40:10;-5.20;99.90
18456;DHT22;9357;49.900;8.208;2022-12-13T04:41:52;-5.20;99.90
18456;DHT22;9357;49.900;8.208;2022-12-13T04:43:25;-5.20;99.90
18456;DHT22;9357;49.900;8.208;2022-12-13T04:44:57;-5.20;99.90
18456;DHT22;9357;49.900;8.208;2022-12-13T04:46:30;-5.20;99.90
18456;DHT22;9357;49.900;8.208;2022-12-13T04:48:04;-5.20;99.90
18456;DHT22;9357;49.900;8.208;2022-12-13T04:49:36;-5.20;99.90
18456;DHT22;9357;49.900;8.208;2022-12-13T04:51:09;-5.20;99.90
18456;DHT22;9357;49.900;8.208;2022-12-13T04:52:43;-5.20;99.90
18456;DHT22;9357;49.900;8.208;2022-12-13T04:54:16;-5.20;99.90
18456;DHT22;9357;49.900;8.208;2022-12-13T04:55:55;-5.20;99.90
18456;DHT22;9357;49.900;8.208;2022-12-13T04:57:27;-5.20;99.90
18456;DHT22;9357;49.900;8.208;2022-12-13T04:59:00;-5.10;99.90
18456;DHT22;9357;49.900;8.208;2022-12-13T05:00:33;-5.20;99.90
18456;DHT22;9357;49.900;8.208;2022-12-13T05:02:06;-5.20;99.90
18456;DHT22;9357;49.900;8.208;2022-12-13T05:03:39;-5.20;99.90
18456;DHT22;9357;49.900;8.208;2022-12-13T05:05:12;-5.20;99.90
18456;DHT22;9357;49.900;8.208;2022-12-13T05:06:45;-5.20;99.90
18456;DHT22;9357;49.900;8.208;2022-12-13T05:08:19;-5.20;99.90
18456;DHT22;9357;49.900;8.208;2022-12-13T05:09:52;-5.20;99.90
18456;DHT22;9357;49.900;8.208;2022-12-13T05:11:25;-5.20;99.90
18456;DHT22;9357;49.900;8.208;2022-12-13T05:13:06;-5.20;99.90
18456;DHT22;9357;49.900;8.208;2022-12-13T05:14:39;-5.20;99.90
18456;DHT22;9357;49.900;8.208;2022-12-13T05:16:11;-5.20;99.90
18456;DHT22;9357;49.900;8.208;2022-12-13T05:17:46;-5.20;99.90
18456;DHT22;9357;49.900;8.208;2022-12-13T05:19:19;-5.20;99.90
18456;DHT22;9357;49.900;8.208;2022-12-13T05:21:02;-5.20;99.90
18456;DHT22;9357;49.900;8.208;2022-12-13T05:22:34;-5.20;99.90
18456;DHT22;9357;49.900;8.208;2022-12-13T05:24:09;-5.20;99.90
18456;DHT22;9357;49.900;8.208;2022-12-13T05:25:42;-5.20;99.90
18456;DHT22;9357;49.900;8.208;2022-12-13T05:27:15;-5.20;99.90
18456;DHT22;9357;49.900;8.208;2022-12-13T05:28:57;-5.20;99.90
18456;DHT22;9357;49.900;8.208;2022-12-13T05:30:30;-5.20;99.90
18456;DHT22;9357;49.900;8.208;2022-12-13T05:32:04;-5.20;99.90
18456;DHT22;9357;49.900;8.208;2022-12-13T05:33:37;-5.20;99.90
18456;DHT22;9357;49.900;8.208;2022-12-13T05:35:10;-5.20;99.90
18456;DHT22;9357;49.900;8.208;2022-12-13T05:36:43;-5.20;99.90
18456;DHT22;9357;49.900;8.208;2022-12-13T05:38:16;-5.20;99.90
18456;DHT22;9357;49.900;8.208;2022-12-13T05:39:50;-5.20;99.90
18456;DHT22;9357;49.900;8.208;2022-12-13T05:41:23;-5.20;99.90
18456;DHT22;9357;49.900;8.208;2022-12-13T05:42:59;-5.20;99.90
18456;DHT22;9357;49.900;8.208;2022-12-13T05:44:32;-5.20;99.90
18456;DHT22;9357;49.900;8.208;2022-12-13T05:46:05;-5.20;99.90
18456;DHT22;9357;49.900;8.208;2022-12-13T05:47:38;-5.20;99.90
18456;DHT22;9357;49.900;8.208;2022-12-13T05:49:11;-5.20;99.90
18456;DHT22;9357;49.900;8.208;2022-12-13T05:50:43;-5.20;99.90
18456;DHT22;9357;49.900;8.208;2022-12-13T05:52:17;-5.20;99.90
18456;DHT22;9357;49.900;8.208;2022-12-13T05:53:49;-5.20;99.90
18456;DHT22;9357;49.900;8.208;2022-12-13T05:55:25;-5.20;99.90
18456;DHT22;9357;49.900;8.208;2022-12-13T05:56:58;-5.20;99.90
18456;DHT22;9357;49.900;8.208;2022-12-13T05:58:31;-5.10;99.90
18456;DHT22;9357;49.900;8.208;2022-12-13T06:00:08;-5.20;99.90
18456;DHT22;9357;49.900;8.208;2022-12-13T06:02:01;-5.20;99.90
18456;DHT22;9357;49.900;8.208;2022-12-13T06:03:34;-5.20;99.90
18456;DHT22;9357;49.900;8.208;2022-12-13T06:05:08;-5.20;99.90
18456;DHT22;9357;49.900;8.208;2022-12-13T06:06:41;-5.20;99.90
18456;DHT22;9357;49.900;8.208;2022-12-13T06:08:14;-5.20;99.90
18456;DHT22;9357;49.900;8.208;2022-12-13T06:09:55;-5.20;99.90
18456;DHT22;9357;49.900;8.208;2022-12-13T06:11:42;-5.20;99.90
18456;DHT22;9357;49.900;8.208;2022-12-13T06:13:15;-5.20;99.90
18456;DHT22;9357;49.900;8.208;2022-12-13T06:15:03;-5.20;99.90
18456;DHT22;9357;49.900;8.208;2022-12-13T06:16:53;-5.20;99.90
18456;DHT22;9357;49.900;8.208;2022-12-13T06:18:26;-5.20;99.90
18456;DHT22;9357;49.900;8.208;2022-12-13T06:19:58;-5.20;99.90
18456;DHT22;9357;49.900;8.208;2022-12-13T06:21:32;-5.20;99.90
18456;DHT22;9357;49.900;8.208;2022-12-13T06:23:16;-5.20;99.90
18456;DHT22;9357;49.900;8.208;2022-12-13T06:24:49;-5.20;99.90
18456;DHT22;9357;49.900;8.208;2022-12-13T06:26:22;-5.20;99.90
18456;DHT22;9357;49.900;8.208;2022-12-13T06:27:56;-5.20;99.90
18456;DHT22;9357;49.900;8.208;2022-12-13T06:29:31;-5.20;99.90
18456;DHT22;9357;49.900;8.208;2022-12-13T06:31:04;-5.20;99.90
18456;DHT22;9357;49.900;8.208;2022-12-13T06:32:37;-5.20;99.90
18456;DHT22;9357;49.900;8.208;2022-12-13T06:34:14;-5.20;99.90
18456;DHT22;9357;49.900;8.208;2022-12-13T06:35:47;-5.20;99.90
18456;DHT22;9357;49.900;8.208;2022-12-13T06:37:20;-5.10;99.90
18456;DHT22;9357;49.900;8.208;2022-12-13T06:38:52;-5.10;99.90
18456;DHT22;9357;49.900;8.208;2022-12-13T06:40:25;-5.20;99.90
18456;DHT22;9357;49.900;8.208;2022-12-13T06:41:58;-5.20;99.90
18456;DHT22;9357;49.900;8.208;2022-12-13T06:43:32;-5.20;99.90
18456;DHT22;9357;49.900;8.208;2022-12-13T06:45:06;-5.20;99.90
18456;DHT22;9357;49.900;8.208;2022-12-13T06:46:39;-5.20;99.90
18456;DHT22;9357;49.900;8.208;2022-12-13T06:48:12;-5.20;99.90
18456;DHT22;9357;49.900;8.208;2022-12-13T06:49:50;-5.20;99.90
18456;DHT22;9357;49.900;8.208;2022-12-13T06:51:23;-5.20;99.90
18456;DHT22;9357;49.900;8.208;2022-12-13T06:53:04;-5.20;99.90
18456;DHT22;9357;49.900;8.208;2022-12-13T06:54:36;-5.20;99.90
18456;DHT22;9357;49.900;8.208;2022-12-13T06:56:10;-5.20;99.90
18456;DHT22;9357;49.900;8.208;2022-12-13T06:57:44;-5.20;99.90
18456;DHT22;9357;49.900;8.208;2022-12-13T06:59:18;-5.20;99.90
18456;DHT22;9357;49.900;8.208;2022-12-13T07:01:00;-5.20;99.90
18456;DHT22;9357;49.900;8.208;2022-12-13T07:02:33;-5.20;99.90
18456;DHT22;9357;49.900;8.208;2022-12-13T07:04:08;-5.20;99.90
18456;DHT22;9357;49.900;8.208;2022-12-13T07:06:04;-5.20;99.90
18456;DHT22;9357;49.900;8.208;2022-12-13T07:07:37;-5.20;99.90
18456;DHT22;9357;49.900;8.208;2022-12-13T07:09:10;-5.20;99.90
18456;DHT22;9357;49.900;8.208;2022-12-13T07:10:43;-5.20;99.90
18456;DHT22;9357;49.900;8.208;2022-12-13T07:12:16;-5.20;99.90
18456;DHT22;9357;49.900;8.208;2022-12-13T07:13:49;-5.20;99.90
18456;DHT22;9357;49.900;8.208;2022-12-13T07:15:24;-5.20;99.90
18456;DHT22;9357;49.900;8.208;2022-12-13T07:16:57;-5.20;99.90
18456;DHT22;9357;49.900;8.208;2022-12-13T07:18:34;-5.20;99.90
18456;DHT22;9357;49.900;8.208;2022-12-13T07:20:08;-5.20;99.90
18456;DHT22;9357;49.900;8.208;2022-12-13T07:21:41;-5.20;99.90
18456;DHT22;9357;49.900;8.208;2022-12-13T07:23:14;-5.20;99.90
18456;DHT22;9357;49.900;8.208;2022-12-13T07:24:55;-5.10;99.90
18456;DHT22;9357;49.900;8.208;2022-12-13T07:26:28;-5.20;99.90
18456;DHT22;9357;49.900;8.208;2022-12-13T07:28:03;-5.20;99.90
18456;DHT22;9357;49.900;8.208;2022-12-13T07:29:36;-5.10;99.90
18456;DHT22;9357;49.900;8.208;2022-12-13T07:31:10;-5.10;99.90
18456;DHT22;9357;49.900;8.208;2022-12-13T07:32:43;-5.10;99.90
18456;DHT22;9357;49.900;8.208;2022-12-13T07:34:16;-5.10;99.90
18456;DHT22;9357;49.900;8.208;2022-12-13T07:35:49;-5.20;99.90
18456;DHT22;9357;49.900;8.208;2022-12-13T07:37:26;-5.10;99.90
18456;DHT22;9357;49.900;8.208;2022-12-13T07:39:01;-5.10;99.90
18456;DHT22;9357;49.900;8.208;2022-12-13T07:40:35;-5.10;99.90
18456;DHT22;9357;49.900;8.208;2022-12-13T07:42:08;-5.10;99.90
18456;DHT22;9357;49.900;8.208;2022-12-13T07:43:41;-5.10;99.90
18456;DHT22;9357;49.900;8.208;2022-12-13T07:45:13;-5.10;99.90
18456;DHT22;9357;49.900;8.208;2022-12-13T07:46:48;-5.10;99.90
18456;DHT22;9357;49.900;8.208;2022-12-13T07:48:20;-5.10;99.90
18456;DHT22;9357;49.900;8.208;2022-12-13T07:49:53;-5.10;99.90
18456;DHT22;9357;49.900;8.208;2022-12-13T07:51:26;-5.10;99.90
18456;DHT22;9357;49.900;8.208;2022-12-13T07:53:02;-5.10;99.90
18456;DHT22;9357;49.900;8.208;2022-12-13T07:54:35;-5.10;99.90
18456;DHT22;9357;49.900;8.208;2022-12-13T07:56:09;-5.10;99.90
18456;DHT22;9357;49.900;8.208;2022-12-13T07:57:44;-5.00;99.90
18456;DHT22;9357;49.900;8.208;2022-12-13T07:59:16;-5.00;99.90
18456;DHT22;9357;49.900;8.208;2022-12-13T08:01:00;-5.00;99.90
18456;DHT22;9357;49.900;8.208;2022-12-13T08:02:35;-5.00;99.90
18456;DHT22;9357;49.900;8.208;2022-12-13T08:04:07;-5.00;99.90
18456;DHT22;9357;49.900;8.208;2022-12-13T08:05:40;-5.00;99.90
18456;DHT22;9357;49.900;8.208;2022-12-13T08:07:13;-5.00;99.90
18456;DHT22;9357;49.900;8.208;2022-12-13T08:08:46;-5.00;99.90
18456;DHT22;9357;49.900;8.208;2022-12-13T08:10:21;-5.00;99.90
18456;DHT22;9357;49.900;8.208;2022-12-13T08:11:54;-4.90;99.90
18456;DHT22;9357;49.900;8.208;2022-12-13T08:13:27;-5.00;99.90
18456;DHT22;9357;49.900;8.208;2022-12-13T08:14:59;-5.00;99.90
18456;DHT22;9357;49.900;8.208;2022-12-13T08:16:32;-5.00;99.90
18456;DHT22;9357;49.900;8.208;2022-12-13T08:18:07;-5.00;99.90
18456;DHT22;9357;49.900;8.208;2022-12-13T08:19:39;-4.90;99.90
18456;DHT22;9357;49.900;8.208;2022-12-13T08:21:13;-4.90;99.90
18456;DHT22;9357;49.900;8.208;2022-12-13T08:23:06;-4.90;99.90
18456;DHT22;9357;49.900;8.208;2022-12-13T08:24:41;-4.90;99.90
18456;DHT22;9357;49.900;8.208;2022-12-13T08:26:14;-4.90;99.90
18456;DHT22;9357;49.900;8.208;2022-12-13T08:27:46;-4.90;99.90
18456;DHT22;9357;49.900;8.208;2022-12-13T08:29:19;-4.80;99.90
18456;DHT22;9357;49.900;8.208;2022-12-13T08:30:54;-4.80;99.90
18456;DHT22;9357;49.900;8.208;2022-12-13T08:32:27;-4.80;99.90
18456;DHT22;9357;49.900;8.208;2022-12-13T08:34:01;-4.80;99.90
18456;DHT22;9357;49.900;8.208;2022-12-13T08:35:33;-4.80;99.90
18456;DHT22;9357;49.900;8.208;2022-12-13T08:37:06;-4.80;99.90
18456;DHT22;9357;49.900;8.208;2022-12-13T08:38:39;-4.80;99.90
18456;DHT22;9357;49.900;8.208;2022-12-13T08:40:12;-4.80;99.90
18456;DHT22;9357;49.900;8.208;2022-12-13T08:41:44;-4.80;99.90
18456;DHT22;9357;49.900;8.208;2022-12-13T08:43:17;-4.80;99.90
18456;DHT22;9357;49.900;8.208;2022-12-13T08:44:55;-4.80;99.90
18456;DHT22;9357;49.900;8.208;2022-12-13T08:46:28;-4.80;99.90
18456;DHT22;9357;49.900;8.208;2022-12-13T08:48:01;-4.70;99.90
18456;DHT22;9357;49.900;8.208;2022-12-13T08:49:35;-4.80;99.90
18456;DHT22;9357;49.900;8.208;2022-12-13T08:51:09;-4.70;99.90
18456;DHT22;9357;49.900;8.208;2022-12-13T08:52:43;-4.70;99.90
18456;DHT22;9357;49.900;8.208;2022-12-13T08:54:16;-4.70;99.90
18456;DHT22;9357;49.900;8.208;2022-12-13T08:56:03;-4.70;99.90
18456;DHT22;9357;49.900;8.208;2022-12-13T08:57:36;-4.70;99.90
18456;DHT22;9357;49.900;8.208;2022-12-13T08:59:10;-4.60;99.90
18456;DHT22;9357;49.900;8.208;2022-12-13T09:00:46;-4.60;99.90
18456;DHT22;9357;49.900;8.208;2022-12-13T09:02:19;-4.60;99.90
18456;DHT22;9357;49.900;8.208;2022-12-13T09:03:54;-4.60;99.90
18456;DHT22;9357;49.900;8.208;2022-12-13T09:05:28;-4.50;99.90
18456;DHT22;9357;49.900;8.208;2022-12-13T09:07:05;-4.50;99.90
18456;DHT22;9357;49.900;8.208;2022-12-13T09:08:38;-4.50;99.90
18456;DHT22;9357;49.900;8.208;2022-12-13T09:10:11;-4.50;99.90
18456;DHT22;9357;49.900;8.208;2022-12-13T09:11:58;-4.50;99.90
18456;DHT22;9357;49.900;8.208;2022-12-13T09:13:32;-4.40;99.90
18456;DHT22;9357;49.900;8.208;2022-12-13T09:15:14;-4.40;99.90
18456;DHT22;9357;49.900;8.208;2022-12-13T09:16:53;-4.40;99.90
18456;DHT22;9357;49.900;8.208;2022-12-13T09:18:34;-4.40;99.90
18456;DHT22;9357;49.900;8.208;2022-12-13T09:20:09;-4.40;99.90
18456;DHT22;9357;49.900;8.208;2022-12-13T09:22:01;-4.30;99.90
18456;DHT22;9357;49.900;8.208;2022-12-13T09:23:35;-4.30;99.90
18456;DHT22;9357;49.900;8.208;2022-12-13T09:25:16;-4.30;99.90
18456;DHT22;9357;49.900;8.208;2022-12-13T09:26:55;-4.30;99.90
18456;DHT22;9357;49.900;8.208;2022-12-13T09:28:28;-4.30;99.90
18456;DHT22;9357;49.900;8.208;2022-12-13T09:30:02;-4.30;99.90
18456;DHT22;9357;49.900;8.208;2022-12-13T09:31:35;-4.30;99.90
18456;DHT22;9357;49.900;8.208;2022-12-13T09:33:10;-4.30;99.90
18456;DHT22;9357;49.900;8.208;2022-12-13T09:35:01;-4.30;99.90
18456;DHT22;9357;49.900;8.208;2022-12-13T09:36:34;-4.20;99.90
18456;DHT22;9357;49.900;8.208;2022-12-13T09:38:08;-4.20;99.90
18456;DHT22;9357;49.900;8.208;2022-12-13T09:39:41;-4.20;99.90
18456;DHT22;9357;49.900;8.208;2022-12-13T09:41:19;-4.20;99.90
18456;DHT22;9357;49.900;8.208;2022-12-13T09:43:00;-4.20;99.90
18456;DHT22;9357;49.900;8.208;2022-12-13T09:44:57;-4.20;99.90
18456;DHT22;9357;49.900;8.208;2022-12-13T09:46:36;-4.10;99.90
18456;DHT22;9357;49.900;8.208;2022-12-13T09:48:16;-4.10;99.90
18456;DHT22;9357;49.900;8.208;2022-12-13T09:56:29;-4.00;99.90
18456;DHT22;9357;49.900;8.208;2022-12-13T09:58:06;-4.00;99.90
18456;DHT22;9357;49.900;8.208;2022-12-13T09:59:41;-4.00;99.90
18456;DHT22;9357;49.900;8.208;2022-12-13T10:01:16;-4.00;99.90
18456;DHT22;9357;49.900;8.208;2022-12-13T10:02:55;-4.00;99.90
18456;DHT22;9357;49.900;8.208;2022-12-13T10:04:28;-3.90;99.90
18456;DHT22;9357;49.900;8.208;2022-12-13T10:06:12;-3.90;99.90
18456;DHT22;9357;49.900;8.208;2022-12-13T10:07:56;-3.90;99.90
18456;DHT22;9357;49.900;8.208;2022-12-13T10:09:29;-3.90;99.90
18456;DHT22;9357;49.900;8.208;2022-12-13T10:11:02;-3.90;99.90
18456;DHT22;9357;49.900;8.208;2022-12-13T10:12:37;-3.80;99.90
18456;DHT22;9357;49.900;8.208;2022-12-13T10:14:13;-3.80;99.90
18456;DHT22;9357;49.900;8.208;2022-12-13T10:15:52;-3.80;99.90
18456;DHT22;9357;49.900;8.208;2022-12-13T10:17:30;-3.70;99.90
18456;DHT22;9357;49.900;8.208;2022-12-13T10:19:15;-3.70;99.90
18456;DHT22;9357;49.900;8.208;2022-12-13T10:21:02;-3.60;99.90
18456;DHT22;9357;49.900;8.208;2022-12-13T10:22:36;-3.30;99.90
18456;DHT22;9357;49.900;8.208;2022-12-13T10:24:14;-3.00;99.90
18456;DHT22;9357;49.900;8.208;2022-12-13T10:26:07;-2.80;99.90